Time;durP1;ratioP1;P1;durP2;ratioP2;P2;SDS_P1;SDS_P2;PMS_P1;PMS_P2;Temp;Humidity;BMP_temperature;BMP_pressure;BME280_temperature;BME280_humidity;BME280_pressure;Samples;Min_cycle;Max_cycle;Signal;HPM_P1;HPM_P2
2022/02/05 00:03:11;;;;;;;11.02;2.35;;;4.30;99.90;;;;;;5050284;28;20473;-70
2022/02/05 00:05:53;;;;;;;4.28;2.03;;;4.30;99.90;;;;;;5045797;28;20435;-70
2022/02/05 00:43:13;;;;;;;6.93;1.95;;;4.40;99.90;;;;;;5048862;28;20131;-70
2022/02/05 00:45:42;;;;;;;8.65;1.75;;;4.40;99.90;;;;;;5049268;28;20036;-70
2022/02/05 00:48:09;;;;;;;3.92;1.42;;;4.50;99.90;;;;;;5048761;28;20373;-70
2022/02/05 00:50:39;;;;;;;5.47;1.67;;;4.50;99.90;;;;;;5048905;28;20036;-70
2022/02/05 00:53:11;;;;;;;3.95;1.83;;;4.50;99.90;;;;;;5047914;28;20041;-70
2022/02/05 00:55:40;;;;;;;5.90;1.70;;;4.50;99.90;;;;;;5048382;28;20037;-70
2022/02/05 00:58:06;;;;;;;7.20;2.10;;;4.50;99.90;;;;;;5047288;28;20021;-70
2022/02/05 01:00:34;;;;;;;6.57;2.50;;;4.50;99.90;;;;;;5047712;28;20021;-70
2022/02/05 01:03:01;;;;;;;7.65;2.80;;;4.50;99.90;;;;;;5043029;28;20091;-70
2022/02/05 01:05:26;;;;;;;6.10;1.90;;;4.50;99.90;;;;;;5048033;28;20477;-70
2022/02/05 01:07:57;;;;;;;9.27;2.78;;;4.50;99.90;;;;;;5046832;28;20054;-70
2022/02/05 01:10:24;;;;;;;7.13;1.98;;;4.60;99.90;;;;;;5048907;28;20124;-70
2022/02/05 01:12:54;;;;;;;3.95;2.17;;;4.60;99.90;;;;;;5039240;28;20437;-70
2022/02/05 01:15:23;;;;;;;9.15;3.28;;;4.60;99.90;;;;;;5046671;28;20110;-70
2022/02/05 01:17:55;;;;;;;8.02;2.08;;;4.60;99.90;;;;;;5047914;28;20093;-70
2022/02/05 01:20:55;;;;;;;9.90;2.55;;;4.60;99.90;;;;;;5047762;28;20051;-70
2022/02/05 01:23:21;;;;;;;9.88;4.00;;;4.60;99.90;;;;;;5047814;28;20104;-70
2022/02/05 01:25:55;;;;;;;8.85;2.78;;;4.60;99.90;;;;;;5048784;28;20147;-70
2022/02/05 01:28:27;;;;;;;7.03;2.65;;;4.60;99.90;;;;;;5045985;28;20040;-70
2022/02/05 01:30:55;;;;;;;6.80;2.58;;;4.60;99.90;;;;;;5047218;28;20071;-70
2022/02/05 01:33:41;;;;;;;7.28;3.50;;;4.60;99.90;;;;;;5048617;28;20473;-71
2022/02/05 01:39:20;;;;;;;5.93;2.53;;;4.70;99.90;;;;;;5047050;28;20346;-70
2022/02/05 01:50:24;;;;;;;7.78;2.88;;;4.60;99.90;;;;;;5048278;28;20067;-70
2022/02/05 02:14:25;;;;;;;8.02;3.83;;;4.60;99.90;;;;;;5047720;28;20037;-70
2022/02/05 02:21:59;;;;;;;8.88;4.32;;;4.60;99.90;;;;;;5045313;28;20037;-70
2022/02/05 02:30:17;;;;;;;10.73;4.18;;;4.60;99.90;;;;;;5030007;28;20098;-70
2022/02/05 02:32:47;;;;;;;7.22;4.57;;;4.60;99.90;;;;;;5047828;28;20036;-70
2022/02/05 02:35:18;;;;;;;6.47;3.92;;;4.60;99.90;;;;;;5046624;28;20021;-70
2022/02/05 02:37:53;;;;;;;11.98;5.13;;;4.60;99.90;;;;;;5046884;28;20401;-70
2022/02/05 02:43:27;;;;;;;8.82;4.53;;;4.60;99.90;;;;;;5048370;28;20044;-70
2022/02/05 02:45:48;;;;;;;10.63;4.18;;;4.60;99.90;;;;;;5044853;28;20041;-70
2022/02/05 02:48:14;;;;;;;5.50;3.65;;;4.60;99.90;;;;;;5046959;28;20025;-70
2022/02/05 02:58:50;;;;;;;10.63;3.55;;;4.60;99.90;;;;;;5046932;28;20082;-70
2022/02/05 03:01:19;;;;;;;6.70;4.13;;;4.60;99.90;;;;;;5046743;28;20076;-70
2022/02/05 03:03:45;;;;;;;9.05;4.07;;;4.70;99.90;;;;;;5046667;28;20032;-70
2022/02/05 03:06:11;;;;;;;5.85;3.05;;;4.60;99.90;;;;;;5046509;28;20021;-70
2022/02/05 03:08:36;;;;;;;;;;;4.70;99.90;;;;;;5046214;28;20359;-70
2022/02/05 03:11:02;;;;;;;14.95;6.03;;;4.70;99.90;;;;;;5045518;28;19963;-70
2022/02/05 03:13:28;;;;;;;;;;;4.70;99.90;;;;;;5047363;28;20316;-70
2022/02/05 03:15:53;;;;;;;9.65;3.90;;;4.70;99.90;;;;;;5046090;28;19909;-70
2022/02/05 03:18:45;;;;;;;5.97;2.88;;;4.70;99.90;;;;;;5049011;28;20036;-70
2022/02/05 03:21:11;;;;;;;7.80;3.33;;;4.70;99.90;;;;;;5050870;28;20033;-70
2022/02/05 03:23:37;;;;;;;6.93;3.28;;;4.70;99.90;;;;;;5047923;28;20029;-70
2022/02/05 03:26:02;;;;;;;10.88;3.95;;;4.70;99.90;;;;;;5051085;28;20040;-70
2022/02/05 03:28:28;;;;;;;10.50;3.10;;;4.70;99.90;;;;;;5050629;28;20056;-70
2022/02/05 03:30:54;;;;;;;12.45;5.80;;;4.70;99.90;;;;;;5050724;28;20067;-70
2022/02/05 03:33:20;;;;;;;12.13;3.83;;;4.60;99.90;;;;;;5049951;28;20034;-70
2022/02/05 03:35:45;;;;;;;10.45;3.58;;;4.60;99.90;;;;;;5051556;28;20048;-70
2022/02/05 03:38:11;;;;;;;6.68;2.65;;;4.60;99.90;;;;;;5050158;28;20029;-70
2022/02/05 03:40:36;;;;;;;9.00;3.50;;;4.60;99.90;;;;;;5050044;28;20516;-70
2022/02/05 03:43:02;;;;;;;6.93;3.47;;;4.60;99.90;;;;;;5050349;28;20033;-70
2022/02/05 03:45:27;;;;;;;5.95;3.30;;;4.60;99.90;;;;;;5049528;28;20040;-70
2022/02/05 03:47:53;;;;;;;7.15;3.22;;;4.70;99.90;;;;;;5049177;28;20048;-70
2022/02/05 03:50:19;;;;;;;9.05;3.10;;;4.70;99.90;;;;;;5051342;28;20025;-70
2022/02/05 03:52:45;;;;;;;;;;;4.60;99.90;;;;;;5051263;28;20087;-70
2022/02/05 03:55:11;;;;;;;11.38;2.75;;;4.60;99.90;;;;;;5049626;28;20384;-70
2022/02/05 03:57:37;;;;;;;4.68;2.28;;;4.60;99.90;;;;;;5050052;28;20040;-70
2022/02/05 04:00:07;;;;;;;12.02;3.45;;;4.60;99.90;;;;;;5047973;28;20444;-70
2022/02/05 04:02:36;;;;;;;11.70;3.10;;;4.60;99.90;;;;;;5050778;28;20108;-70
2022/02/05 04:05:02;;;;;;;10.05;2.88;;;4.60;99.90;;;;;;5050058;28;20025;-70
2022/02/05 04:07:31;;;;;;;5.18;2.15;;;4.60;99.90;;;;;;5050574;28;20036;-70
2022/02/05 04:10:00;;;;;;;8.77;3.15;;;4.60;99.90;;;;;;5048490;28;20036;-70
2022/02/05 04:17:54;;;;;;;10.07;3.05;;;4.50;99.90;;;;;;5050007;28;20370;-70
2022/02/05 04:20:20;;;;;;;13.25;3.42;;;4.50;99.90;;;;;;5051182;28;20021;-70
2022/02/05 04:22:46;;;;;;;8.95;3.03;;;4.60;99.90;;;;;;5049407;28;20474;-70
2022/02/05 04:25:12;;;;;;;6.03;2.72;;;4.50;99.90;;;;;;5050026;28;20021;-70
2022/02/05 04:27:38;;;;;;;6.88;3.47;;;4.50;99.90;;;;;;5050172;28;20525;-70
2022/02/05 04:30:04;;;;;;;;;;;4.60;99.90;;;;;;5047155;28;20532;-70
2022/02/05 04:32:29;;;;;;;8.90;4.85;;;4.60;99.90;;;;;;5049134;28;19913;-70
2022/02/05 04:34:55;;;;;;;13.73;3.60;;;4.60;99.90;;;;;;5049630;28;20036;-70
2022/02/05 04:37:24;;;;;;;12.60;3.58;;;4.60;99.90;;;;;;5049663;28;20530;-70
2022/02/05 04:40:01;;;;;;;11.20;2.92;;;4.70;99.90;;;;;;5049784;28;20064;-70
2022/02/05 04:42:38;;;;;;;14.13;2.47;;;4.70;99.90;;;;;;5049853;28;20025;-70
2022/02/05 04:50:38;;;;;;;8.57;2.67;;;4.70;99.90;;;;;;5048614;28;20032;-70
2022/02/05 04:58:35;;;;;;;12.27;2.72;;;4.70;99.90;;;;;;5049981;28;20083;-70
2022/02/05 05:01:20;;;;;;;3.97;1.85;;;4.70;99.90;;;;;;5048594;28;20095;-70
2022/02/05 05:04:07;;;;;;;7.97;2.40;;;4.70;99.90;;;;;;5048117;28;20059;-70
2022/02/05 05:20:20;;;;;;;5.80;2.65;;;4.80;99.90;;;;;;5048435;28;20139;-70
2022/02/05 05:22:45;;;;;;;;;;;4.80;99.90;;;;;;5048284;28;20052;-70
2022/02/05 05:25:11;;;;;;;11.27;2.88;;;4.80;99.90;;;;;;5047794;28;20376;-70
2022/02/05 05:27:37;;;;;;;10.50;2.63;;;4.80;99.90;;;;;;5048171;28;20393;-70
2022/02/05 05:30:04;;;;;;;7.70;2.67;;;4.80;99.90;;;;;;5048215;28;20128;-70
2022/02/05 05:32:29;;;;;;;8.98;2.25;;;4.80;99.90;;;;;;5048644;28;20075;-70
2022/02/05 05:34:55;;;;;;;4.60;2.35;;;4.80;99.90;;;;;;5048688;28;20037;-70
2022/02/05 05:37:21;;;;;;;8.27;1.60;;;4.80;99.90;;;;;;5048444;28;20033;-70
2022/02/05 05:39:49;;;;;;;7.65;1.73;;;4.80;99.90;;;;;;5046389;28;20021;-70
2022/02/05 05:42:21;;;;;;;8.70;1.85;;;4.80;99.90;;;;;;5047902;28;20043;-70
2022/02/05 05:47:37;;;;;;;9.43;2.53;;;4.80;99.90;;;;;;5047554;28;20031;-70
2022/02/05 05:50:11;;;;;;;9.07;2.47;;;4.80;99.90;;;;;;5047881;28;20524;-70
2022/02/05 05:52:37;;;;;;;8.23;3.15;;;4.80;99.90;;;;;;5048521;28;20064;-70
2022/02/05 05:55:02;;;;;;;;;;;4.80;99.90;;;;;;5046517;28;20456;-70
2022/02/05 05:57:28;;;;;;;3.78;1.92;;;4.80;99.90;;;;;;5048379;28;19904;-70
2022/02/05 05:59:54;;;;;;;;;;;4.80;99.90;;;;;;5048384;28;20036;-70
2022/02/05 06:02:19;;;;;;;9.05;2.05;;;4.80;99.90;;;;;;5047786;28;19909;-70
2022/02/05 06:04:45;;;;;;;6.57;2.47;;;4.80;99.90;;;;;;5050121;28;20033;-70
2022/02/05 06:07:11;;;;;;;3.72;2.40;;;4.80;99.90;;;;;;5050393;28;20543;-70
2022/02/05 06:09:40;;;;;;;9.50;2.58;;;4.80;99.90;;;;;;5049971;28;20036;-70
2022/02/05 06:12:07;;;;;;;6.88;1.90;;;4.80;99.90;;;;;;5048144;28;20430;-71
2022/02/05 06:14:33;;;;;;;8.98;3.08;;;4.80;99.90;;;;;;5046485;28;20063;-71
2022/02/05 06:17:07;;;;;;;7.97;3.17;;;4.80;99.90;;;;;;5047513;28;20112;-71
2022/02/05 06:19:33;;;;;;;11.50;3.15;;;4.80;99.90;;;;;;5048334;28;20444;-70
2022/02/05 06:21:59;;;;;;;8.82;2.65;;;4.80;99.90;;;;;;5048148;28;20049;-70
2022/02/05 06:24:25;;;;;;;9.88;2.85;;;4.80;99.90;;;;;;5047107;28;20027;-70
2022/02/05 06:26:50;;;;;;;10.85;2.85;;;4.80;99.90;;;;;;5047348;28;20090;-70
2022/02/05 06:29:16;;;;;;;7.78;3.10;;;4.70;99.90;;;;;;5047274;28;20025;-70
2022/02/05 06:31:43;;;;;;;7.57;3.05;;;4.70;99.90;;;;;;5047871;28;20052;-71
2022/02/05 06:34:08;;;;;;;6.72;2.47;;;4.70;99.90;;;;;;5043216;28;20118;-70
2022/02/05 06:36:34;;;;;;;8.63;4.55;;;4.70;99.90;;;;;;5046116;28;20493;-71
2022/02/05 06:39:00;;;;;;;10.15;3.38;;;4.70;99.90;;;;;;5043392;28;20037;-70
2022/02/05 06:41:25;;;;;;;5.40;3.25;;;4.70;99.90;;;;;;5046413;28;20020;-70
2022/02/05 06:43:51;;;;;;;8.20;2.90;;;4.70;99.90;;;;;;5039520;28;20032;-70
2022/02/05 06:46:17;;;;;;;10.57;2.58;;;4.70;99.90;;;;;;5045878;28;20048;-70
2022/02/05 06:48:42;;;;;;;;;;;4.60;99.90;;;;;;5043711;28;20148;-70
2022/02/05 06:51:08;;;;;;;5.35;1.98;;;4.60;99.90;;;;;;5045381;28;19970;-71
2022/02/05 06:53:33;;;;;;;7.55;3.28;;;4.60;99.90;;;;;;5044858;28;20059;-70
2022/02/05 06:55:59;;;;;;;6.18;3.15;;;4.50;99.90;;;;;;5044800;28;20063;-70
2022/02/05 06:58:24;;;;;;;9.98;4.95;;;4.50;99.90;;;;;;5046720;28;20025;-70
2022/02/05 07:00:51;;;;;;;10.32;2.83;;;4.40;99.90;;;;;;5046021;28;20124;-70
2022/02/05 07:03:17;;;;;;;14.43;4.53;;;4.40;99.90;;;;;;5046332;28;20428;-69
2022/02/05 07:05:44;;;;;;;10.40;3.03;;;4.50;99.90;;;;;;5047707;28;20100;-70
2022/02/05 07:08:09;;;;;;;7.55;2.97;;;4.40;99.90;;;;;;5043881;28;20796;-69
2022/02/05 07:10:35;;;;;;;9.18;3.03;;;4.50;99.90;;;;;;5043838;28;20069;-70
2022/02/05 07:15:34;;;;;;;9.82;4.00;;;4.50;99.90;;;;;;5044953;28;20037;-70
2022/02/05 07:20:38;;;;;;;12.27;3.42;;;4.40;99.90;;;;;;5046681;28;20128;-70
2022/02/05 07:31:00;;;;;;;7.22;3.05;;;4.50;99.90;;;;;;5045820;28;20082;-71
2022/02/05 07:33:26;;;;;;;15.30;4.13;;;4.50;99.90;;;;;;5045077;28;20111;-70
2022/02/05 07:35:51;;;;;;;8.30;3.20;;;4.40;99.90;;;;;;5045652;28;20596;-70
2022/02/05 07:38:17;;;;;;;15.15;3.85;;;4.40;99.90;;;;;;5045871;28;20578;-70
2022/02/05 07:40:42;;;;;;;9.73;4.22;;;4.40;99.90;;;;;;5043290;28;20032;-70
2022/02/05 07:43:08;;;;;;;9.10;3.03;;;4.40;99.90;;;;;;5047224;28;20029;-70
2022/02/05 07:45:33;;;;;;;13.40;3.65;;;4.50;99.90;;;;;;5047285;28;20025;-70
2022/02/05 07:47:59;;;;;;;;;;;4.60;99.90;;;;;;5048223;28;20033;-69
2022/02/05 07:50:24;;;;;;;19.50;5.70;;;4.70;99.90;;;;;;5046033;28;19912;-69
2022/02/05 07:52:50;;;;;;;8.07;4.03;;;4.70;99.90;;;;;;5046328;28;20033;-71
2022/02/05 07:55:15;;;;;;;8.32;3.67;;;4.70;99.90;;;;;;5046179;28;20462;-70
2022/02/05 07:57:41;;;;;;;9.25;3.05;;;4.70;99.90;;;;;;5046592;28;20032;-68
2022/02/05 08:00:07;;;;;;;7.43;3.97;;;4.70;99.90;;;;;;5044784;28;20041;-69
2022/02/05 08:02:32;;;;;;;;;;;4.70;99.90;;;;;;5047278;28;20033;-69
2022/02/05 08:04:58;;;;;;;5.22;2.08;;;4.70;99.90;;;;;;5047606;28;20265;-69
2022/02/05 08:07:24;;;;;;;8.75;2.13;;;4.80;99.90;;;;;;5046588;28;20049;-70
2022/02/05 08:09:57;;;;;;;12.35;7.45;;;4.80;99.90;;;;;;5049930;28;20041;-85
2022/02/05 08:12:24;;;;;;;13.48;4.82;;;5.00;99.90;;;;;;5049630;28;20058;-82
2022/02/05 08:14:52;;;;;;;7.80;2.65;;;5.90;99.90;;;;;;5048234;28;20454;-69
2022/02/05 08:17:22;;;;;;;11.20;2.95;;;6.60;99.90;;;;;;5049067;28;20029;-69
2022/02/05 08:19:47;;;;;;;14.43;2.67;;;6.30;99.90;;;;;;5049449;28;20036;-69
2022/02/05 08:22:14;;;;;;;9.68;2.67;;;5.90;99.90;;;;;;5048798;28;20021;-70
2022/02/05 08:24:40;;;;;;;7.78;2.17;;;5.60;99.90;;;;;;5046097;28;20115;-70
2022/02/05 08:27:06;;;;;;;9.15;2.28;;;5.40;99.90;;;;;;5047826;28;20172;-70
2022/02/05 08:29:33;;;;;;;;;;;5.30;99.90;;;;;;5044531;28;20397;-70
2022/02/05 08:31:59;;;;;;;8.07;2.10;;;5.20;99.90;;;;;;5045827;28;19912;-69
2022/02/05 08:34:24;;;;;;;6.90;2.88;;;5.10;99.90;;;;;;5048255;28;20104;-70
2022/02/05 08:36:51;;;;;;;7.10;2.15;;;5.10;99.90;;;;;;5045804;28;20075;-70
2022/02/05 08:39:19;;;;;;;13.38;2.85;;;5.10;99.90;;;;;;5047493;28;20033;-70
2022/02/05 08:41:45;;;;;;;11.18;3.03;;;5.10;99.90;;;;;;5045582;28;20029;-70
2022/02/05 08:44:11;;;;;;;8.85;2.97;;;5.30;99.90;;;;;;5044292;28;20512;-70
2022/02/05 08:46:37;;;;;;;9.93;3.47;;;5.30;99.90;;;;;;5049424;28;20400;-70
2022/02/05 08:49:03;;;;;;;11.80;5.63;;;5.40;99.90;;;;;;5048741;28;20037;-70
2022/02/05 08:51:30;;;;;;;6.63;2.20;;;5.30;99.90;;;;;;5049014;28;20071;-70
2022/02/05 08:53:56;;;;;;;10.18;3.83;;;5.30;99.90;;;;;;5046198;28;20028;-70
2022/02/05 08:56:23;;;;;;;10.65;3.65;;;5.40;99.90;;;;;;5047979;28;20044;-70
2022/02/05 08:58:50;;;;;;;9.32;3.47;;;5.50;99.90;;;;;;5047297;28;20037;-70
2022/02/05 09:01:24;;;;;;;14.98;3.30;;;5.50;99.90;;;;;;5049334;28;20021;-70
2022/02/05 09:04:13;;;;;;;8.07;3.13;;;5.50;99.90;;;;;;5048348;28;20037;-70
2022/02/05 09:06:44;;;;;;;11.55;5.22;;;5.50;99.90;;;;;;5048863;28;20025;-70
2022/02/05 09:09:42;;;;;;;14.90;2.47;;;5.50;99.90;;;;;;5049509;28;20025;-70
2022/02/05 09:12:15;;;;;;;11.50;4.18;;;5.50;99.90;;;;;;5048571;22;20071;-60
2022/02/05 09:14:44;;;;;;;6.75;3.20;;;5.50;99.90;;;;;;5033588;28;20014;-59
2022/02/05 09:17:10;;;;;;;8.98;2.67;;;5.40;99.90;;;;;;5043444;28;20032;-59
2022/02/05 09:19:36;;;;;;;12.75;3.45;;;5.20;99.90;;;;;;5032416;28;20030;-59
2022/02/05 09:22:03;;;;;;;8.70;2.95;;;5.10;99.90;;;;;;5030965;28;20058;-58
2022/02/05 09:24:29;;;;;;;10.70;2.97;;;5.10;99.90;;;;;;5031167;28;20030;-59
2022/02/05 09:27:09;;;;;;;13.73;2.45;;;5.00;99.90;;;;;;5037265;28;20076;-59
2022/02/05 09:29:43;;;;;;;7.70;2.05;;;5.00;99.90;;;;;;5034937;28;20048;-59
2022/02/05 09:32:08;;;;;;;16.27;4.15;;;5.10;99.90;;;;;;5037433;28;20552;-59
2022/02/05 09:34:34;;;;;;;13.00;3.92;;;5.10;99.90;;;;;;5038613;28;20037;-59
2022/02/05 09:36:59;;;;;;;11.43;3.13;;;5.10;99.90;;;;;;5037715;28;20025;-59
2022/02/05 09:39:25;;;;;;;8.60;3.50;;;5.20;99.90;;;;;;5032917;28;20029;-59
2022/02/05 09:41:51;;;;;;;;;;;5.20;99.90;;;;;;5030260;28;20037;-60
2022/02/05 09:44:17;;;;;;;8.75;5.55;;;5.20;99.90;;;;;;5030316;28;19921;-58
2022/02/05 09:46:42;;;;;;;12.52;2.63;;;5.30;99.90;;;;;;5032721;28;20028;-59
2022/02/05 09:49:09;;;;;;;6.70;2.38;;;5.30;99.90;;;;;;5030964;28;20120;-59
2022/02/05 09:51:40;;;;;;;;;;;5.30;99.90;;;;;;5032624;28;20103;-60
2022/02/05 09:54:08;;;;;;;6.63;3.03;;;5.30;99.90;;;;;;5033760;28;20286;-57
2022/02/05 09:56:35;;;;;;;10.23;3.78;;;5.20;99.90;;;;;;5033668;28;20061;-59
2022/02/05 09:59:01;;;;;;;5.32;1.90;;;5.10;99.90;;;;;;5028970;28;20099;-58
2022/02/05 10:01:38;;;;;;;15.95;2.70;;;5.10;99.90;;;;;;5039024;28;20025;-61
2022/02/05 10:04:10;;;;;;;13.20;3.33;;;5.20;99.90;;;;;;5036171;28;20018;-60
2022/02/05 10:06:41;;;;;;;7.63;2.47;;;5.20;99.90;;;;;;5030407;28;20037;-59
2022/02/05 10:09:16;;;;;;;10.95;2.28;;;5.30;99.90;;;;;;5030352;28;20029;-59
2022/02/05 10:11:56;;;;;;;13.18;3.70;;;5.40;99.90;;;;;;5041015;28;20045;-59
2022/02/05 10:14:27;;;;;;;10.90;2.10;;;5.40;99.90;;;;;;5028720;28;20390;-59
2022/02/05 10:16:56;;;;;;;11.98;2.78;;;5.50;99.90;;;;;;5032294;28;20485;-60
2022/02/05 10:19:43;;;;;;;7.80;2.80;;;5.50;99.90;;;;;;5032033;28;20433;-60
2022/02/05 10:22:09;;;;;;;7.38;3.10;;;5.50;99.90;;;;;;5034239;28;20059;-59
2022/02/05 10:24:46;;;;;;;12.45;2.95;;;5.70;99.90;;;;;;5029530;28;20033;-60
2022/02/05 10:27:32;;;;;;;13.68;2.75;;;5.70;99.90;;;;;;5029684;28;20032;-60
2022/02/05 10:30:09;;;;;;;10.63;2.63;;;5.80;99.90;;;;;;5031351;28;20033;-60
2022/02/05 10:32:40;;;;;;;10.63;2.88;;;5.90;99.90;;;;;;5037288;28;20029;-58
2022/02/05 10:35:32;;;;;;;14.57;2.63;;;6.00;99.90;;;;;;5032510;28;20036;-60
2022/02/05 10:38:14;;;;;;;15.05;3.45;;;6.10;99.90;;;;;;5037112;28;20035;-58
2022/02/05 10:43:07;;;;;;;6.05;2.05;;;6.40;99.90;;;;;;5034083;28;20082;-60
2022/02/05 10:45:48;;;;;;;20.60;4.40;;;6.40;99.90;;;;;;5034504;28;20029;-57
2022/02/05 10:48:23;;;;;;;10.15;2.47;;;6.50;99.90;;;;;;5033989;28;20029;-58
2022/02/05 10:50:52;;;;;;;9.55;1.98;;;6.60;99.90;;;;;;5037807;28;20032;-59
2022/02/05 10:53:36;;;;;;;8.15;1.55;;;6.70;99.90;;;;;;5038308;28;20044;-60
2022/02/05 10:56:27;;;;;;;11.23;2.60;;;6.80;99.90;;;;;;5037459;28;20558;-60
2022/02/05 11:07:21;;;;;;;12.55;2.70;;;6.90;99.90;;;;;;5026875;28;20072;-60
2022/02/05 11:09:50;;;;;;;10.52;3.10;;;6.90;99.90;;;;;;5030509;28;20033;-58
2022/02/05 11:20:23;;;;;;;5.60;2.30;;;7.00;99.70;;;;;;5032062;28;20024;-58
2022/02/05 11:22:54;;;;;;;11.90;2.08;;;7.10;99.50;;;;;;5035533;28;20029;-60
2022/02/05 11:25:21;;;;;;;5.07;1.58;;;7.20;99.10;;;;;;5027100;28;20517;-59
2022/02/05 11:27:52;;;;;;;11.10;2.63;;;7.30;98.90;;;;;;5026633;28;20030;-59
2022/02/05 11:30:35;;;;;;;8.90;1.90;;;7.20;98.80;;;;;;5033809;28;20037;-59
2022/02/05 11:33:06;;;;;;;9.20;2.63;;;7.20;98.90;;;;;;5024913;28;20510;-59
2022/02/05 11:38:09;;;;;;;;;;;7.10;98.40;;;;;;5027512;28;20037;-59
2022/02/05 11:40:52;;;;;;;9.98;2.80;;;7.10;98.40;;;;;;5030305;28;20243;-59
2022/02/05 11:43:23;;;;;;;5.75;2.35;;;7.10;98.50;;;;;;5033929;28;20792;-59
2022/02/05 11:46:04;;;;;;;8.75;1.95;;;7.10;98.90;;;;;;5035987;28;20021;-60
2022/02/05 11:48:59;;;;;;;10.02;2.85;;;7.10;98.80;;;;;;5030962;28;20061;-59
2022/02/05 11:51:28;;;;;;;9.10;2.88;;;7.00;98.90;;;;;;5032587;28;20370;-61
2022/02/05 11:54:00;;;;;;;10.38;1.95;;;7.00;98.90;;;;;;5034979;28;20453;-59
2022/02/05 11:57:07;;;;;;;10.27;3.70;;;7.00;99.00;;;;;;5038628;28;20076;-59
2022/02/05 11:59:55;;;;;;;15.50;3.20;;;7.10;98.60;;;;;;5037782;28;20043;-59
2022/02/05 12:02:22;;;;;;;8.65;2.28;;;7.20;99.90;;;;;;5036097;28;20075;-59
2022/02/05 12:05:21;;;;;;;7.72;2.30;;;7.70;99.20;;;;;;5029205;28;20111;-58
2022/02/05 12:08:05;;;;;;;8.85;1.90;;;7.70;97.50;;;;;;5030879;28;20063;-59
2022/02/05 12:10:34;;;;;;;13.98;5.05;;;7.60;97.80;;;;;;5037087;28;20033;-58
2022/02/05 12:13:15;;;;;;;13.13;2.35;;;7.50;98.10;;;;;;5034627;28;20053;-60
2022/02/05 12:15:43;;;;;;;10.98;1.92;;;7.40;97.50;;;;;;5032836;28;20105;-59
2022/02/05 12:18:17;;;;;;;9.07;2.97;;;7.40;98.10;;;;;;5032870;28;20035;-60
2022/02/05 12:21:08;;;;;;;6.93;2.50;;;7.40;97.90;;;;;;5032883;28;20026;-60
2022/02/05 12:24:14;;;;;;;9.50;1.95;;;7.40;97.40;;;;;;5036144;28;20209;-59
2022/02/05 12:26:33;;;;;;;11.77;2.15;;;7.30;97.20;;;;;;5034291;28;20511;-57
2022/02/05 12:29:00;;;;;;;7.25;1.60;;;7.20;97.30;;;;;;5032654;28;20032;-59
2022/02/05 12:31:30;;;;;;;7.25;2.40;;;7.10;97.20;;;;;;5034158;28;20030;-60
2022/02/05 12:33:59;;;;;;;7.05;2.17;;;7.20;97.40;;;;;;5036533;28;20025;-60
2022/02/05 12:36:25;;;;;;;7.60;2.15;;;7.30;97.50;;;;;;5039123;28;20755;-60
2022/02/05 12:38:52;;;;;;;;;;;7.30;97.80;;;;;;5038718;28;20025;-60
2022/02/05 12:41:18;;;;;;;11.88;3.25;;;7.40;97.30;;;;;;5030192;28;19939;-60
2022/02/05 12:43:50;;;;;;;;;;;7.50;97.50;;;;;;5034783;28;20382;-58
2022/02/05 12:46:16;;;;;;;9.70;3.38;;;7.60;96.80;;;;;;5034321;28;19905;-60
2022/02/05 12:48:48;;;;;;;9.90;2.35;;;7.60;96.60;;;;;;5035721;28;20029;-60
2022/02/05 12:51:14;;;;;;;3.03;2.15;;;7.60;96.20;;;;;;5027119;28;20128;-60
2022/02/05 12:53:41;;;;;;;;;;;7.60;96.30;;;;;;5027940;28;20549;-58
2022/02/05 12:56:11;;;;;;;5.32;1.60;;;7.50;96.30;;;;;;5030947;28;20015;-59
2022/02/05 12:59:03;;;;;;;8.43;2.17;;;7.50;95.90;;;;;;5034892;28;20398;-59
2022/02/05 13:01:31;;;;;;;5.03;1.65;;;7.30;96.10;;;;;;5027033;28;20437;-57
2022/02/05 13:04:14;;;;;;;8.15;1.63;;;7.20;95.90;;;;;;5031008;28;20057;-59
2022/02/05 13:06:40;;;;;;;13.85;3.40;;;7.20;96.20;;;;;;5033070;28;20466;-56
2022/02/05 13:09:20;;;;;;;5.57;1.48;;;7.10;96.10;;;;;;5030118;28;20138;-57
2022/02/05 13:11:52;;;;;;;5.95;2.92;;;7.20;96.50;;;;;;5030312;28;20034;-57
2022/02/05 13:14:18;;;;;;;5.88;1.42;;;7.20;96.60;;;;;;5030531;28;20116;-58
2022/02/05 13:16:46;;;;;;;;;;;7.20;96.60;;;;;;5029794;28;20490;-56
2022/02/05 13:19:25;;;;;;;6.43;1.40;;;7.20;96.50;;;;;;5030570;28;20360;-59
2022/02/05 13:27:28;;;;;;;6.25;1.58;;;7.20;96.60;;;;;;5038225;28;20025;-60
2022/02/05 13:33:34;;;;;;;15.75;2.42;;;7.20;96.30;;;;;;5038686;28;20032;-57
2022/02/05 13:35:24;;;;;;;6.65;1.65;;;7.20;96.70;;;;;;5033013;28;20497;-60
2022/02/05 13:37:54;;;;;;;8.82;1.65;;;7.20;96.80;;;;;;5031790;28;21955;-60
2022/02/05 13:40:23;;;;;;;8.65;1.63;;;7.20;97.00;;;;;;5028292;28;20040;-60
2022/02/05 13:42:51;;;;;;;6.75;2.40;;;7.30;97.00;;;;;;5033725;28;20381;-59
2022/02/05 13:45:35;;;;;;;5.63;1.92;;;7.30;97.10;;;;;;5029791;28;20445;-58
2022/02/05 13:48:02;;;;;;;5.95;2.13;;;7.30;97.00;;;;;;5034385;28;20056;-58
2022/02/05 13:50:32;;;;;;;9.98;2.25;;;7.30;96.80;;;;;;5036002;28;20037;-57
2022/02/05 13:53:06;;;;;;;9.18;2.05;;;7.30;96.50;;;;;;5029931;28;20025;-54
2022/02/05 13:55:35;;;;;;;1.92;1.30;;;7.20;96.50;;;;;;5029593;28;20097;-60
2022/02/05 13:58:10;;;;;;;4.30;1.67;;;7.20;96.00;;;;;;5033113;28;20295;-58
2022/02/05 14:00:38;;;;;;;8.27;2.25;;;7.20;95.90;;;;;;5027708;28;20025;-57
2022/02/05 14:03:08;;;;;;;5.78;1.92;;;7.20;95.40;;;;;;5032310;28;20025;-57
2022/02/05 14:05:34;;;;;;;5.50;1.65;;;7.10;95.90;;;;;;5028396;28;20032;-57
2022/02/05 14:07:59;;;;;;;8.00;1.67;;;7.10;96.10;;;;;;5032446;28;20026;-58
2022/02/05 14:10:25;;;;;;;8.77;1.73;;;7.10;96.20;;;;;;5025443;28;20029;-59
2022/02/05 14:12:54;;;;;;;;;;;7.00;95.90;;;;;;5032396;28;20029;-57
2022/02/05 14:15:27;;;;;;;12.63;1.85;;;7.00;96.30;;;;;;5030564;28;20092;-58
2022/02/05 14:18:15;;;;;;;4.72;2.40;;;7.00;96.70;;;;;;5028455;28;20033;-60
2022/02/05 14:20:57;;;;;;;7.90;2.15;;;7.00;99.30;;;;;;5029686;28;20024;-58
2022/02/05 14:23:25;;;;;;;5.43;1.50;;;7.10;96.90;;;;;;5033327;28;20490;-60
2022/02/05 14:26:05;;;;;;;8.50;2.28;;;7.00;97.00;;;;;;5032013;28;20144;-57
2022/02/05 14:28:45;;;;;;;7.57;3.83;;;7.00;97.10;;;;;;5033731;28;20029;-59
2022/02/05 14:31:17;;;;;;;6.93;1.73;;;7.00;96.80;;;;;;5029409;28;20034;-60
2022/02/05 14:41:50;;;;;;;5.07;1.92;;;6.90;97.10;;;;;;5030861;28;20548;-59
2022/02/05 14:44:16;;;;;;;8.82;2.40;;;6.90;97.10;;;;;;5031127;28;20037;-60
2022/02/05 14:46:42;;;;;;;11.25;2.45;;;6.90;96.90;;;;;;5033061;28;20017;-60
2022/02/05 14:49:07;;;;;;;;;;;6.80;97.50;;;;;;5030767;28;20095;-58
2022/02/05 14:51:33;;;;;;;6.45;2.30;;;6.80;97.40;;;;;;5027638;28;20138;-60
2022/02/05 14:53:59;;;;;;;;;;;6.80;97.80;;;;;;5028038;28;20453;-60
2022/02/05 14:56:27;;;;;;;13.13;2.65;;;6.80;97.60;;;;;;5027917;28;20350;-61
2022/02/05 14:58:53;;;;;;;5.35;2.83;;;6.80;97.50;;;;;;5034228;28;20103;-60
2022/02/05 15:01:21;;;;;;;9.40;1.60;;;6.80;97.60;;;;;;5030273;28;20576;-60
2022/02/05 15:03:51;;;;;;;6.35;2.53;;;6.80;97.60;;;;;;5033575;28;20095;-61
2022/02/05 15:06:22;;;;;;;8.38;3.15;;;6.80;97.80;;;;;;5026310;28;20032;-58
2022/02/05 15:08:49;;;;;;;11.73;2.63;;;6.80;97.50;;;;;;5071600;22;20142;-56
2022/02/05 15:11:16;;;;;;;4.47;2.10;;;6.70;97.20;;;;;;5046399;28;20025;-55
2022/02/05 15:13:42;;;;;;;5.10;2.33;;;6.70;97.30;;;;;;5050324;28;20481;-55
2022/02/05 15:16:10;;;;;;;8.82;2.97;;;6.70;97.50;;;;;;5052259;28;20139;-55
2022/02/05 15:18:42;;;;;;;7.28;2.30;;;6.70;97.40;;;;;;5053495;28;20041;-55
2022/02/05 15:21:10;;;;;;;7.78;2.45;;;6.60;97.50;;;;;;5054449;28;20036;-57
2022/02/05 15:23:35;;;;;;;5.55;2.20;;;6.60;97.70;;;;;;5034376;28;20029;-56
2022/02/05 15:26:03;;;;;;;6.32;2.55;;;6.60;97.60;;;;;;5056020;28;20032;-55
2022/02/05 15:28:29;;;;;;;9.70;3.55;;;6.60;97.90;;;;;;5048115;28;20086;-54
2022/02/05 15:30:55;;;;;;;11.38;3.85;;;6.60;97.90;;;;;;5055255;28;20424;-55
2022/02/05 15:33:21;;;;;;;12.98;4.40;;;6.60;97.90;;;;;;5057762;28;20044;-55
2022/02/05 15:35:49;;;;;;;7.95;3.35;;;6.60;98.00;;;;;;5057570;28;20036;-52
2022/02/05 15:38:20;;;;;;;15.48;5.07;;;6.60;98.00;;;;;;5057020;28;20032;-55
2022/02/05 15:46:05;;;;;;;5.40;2.72;;;6.60;98.30;;;;;;5054225;28;20028;-56
2022/02/05 15:48:31;;;;;;;5.72;2.33;;;6.50;98.30;;;;;;5053810;28;20036;-56
2022/02/05 15:50:56;;;;;;;;;;;6.50;98.40;;;;;;5050282;28;20693;-57
2022/02/05 15:53:22;;;;;;;7.40;3.20;;;6.50;98.20;;;;;;5049763;28;19912;-54
2022/02/05 15:55:48;;;;;;;4.40;2.30;;;6.50;98.40;;;;;;5052048;28;20368;-54
2022/02/05 15:58:20;;;;;;;9.27;3.13;;;6.50;98.70;;;;;;5047376;28;20037;-55
2022/02/05 16:00:46;;;;;;;5.78;2.03;;;6.50;98.70;;;;;;5047067;28;20083;-57
2022/02/05 16:03:12;;;;;;;9.55;4.13;;;6.40;98.70;;;;;;5049035;28;20024;-58
2022/02/05 16:05:38;;;;;;;11.48;3.03;;;6.40;98.90;;;;;;5052538;28;20037;-56
2022/02/05 16:08:04;;;;;;;7.30;3.38;;;6.40;98.90;;;;;;5049950;28;20033;-57
2022/02/05 16:10:29;;;;;;;;;;;6.40;98.90;;;;;;5052604;28;20021;-56
2022/02/05 16:12:55;;;;;;;8.88;2.97;;;6.40;99.10;;;;;;5052074;28;19908;-56
2022/02/05 16:15:20;;;;;;;;;;;6.30;99.00;;;;;;5051712;28;20032;-57